Time,TemperatureF,DewpointF,PressureIn,WindDirection,WindDirectionDegrees,WindSpeedMPH,WindSpeedGustMPH,Humidity,HourlyPrecipIn,Conditions,Clouds,dailyrainin,SoftwareType,DateUTC
2013-01-14 01:00:00,59.4,56.2,30.11,SSE,158,0.7,0.7,89,0.00,,,0.00,WUHU216HW,2013-01-14 06:00:00,
2013-01-14 07:00:00,53.6,50.5,30.12,SSW,203,0.9,0.9,89,0.00,,,0.00,WUHU216HW,2013-01-14 12:00:00,
2013-01-14 07:05:00,53.6,50.5,30.12,South,180,1.1,1.1,89,0.00,,,0.00,WUHU216HW,2013-01-14 12:05:00,
2013-01-14 07:10:00,53.6,50.5,30.12,South,180,1.1,1.1,89,0.00,,,0.00,WUHU216HW,2013-01-14 12:10:00,
2013-01-14 07:30:00,55.1,51.8,30.13,SSW,203,1.8,1.8,89,0.00,,,0.00,WUHU216HW,2013-01-14 12:30:00,
2013-01-14 08:00:00,55.8,52.6,30.14,SSW,203,0.0,0.0,89,0.00,,,0.00,WUHU216HW,2013-01-14 13:00:00,
2013-01-14 08:05:00,55.8,52.6,30.14,SSW,203,0.0,0.0,89,0.00,,,0.00,WUHU216HW,2013-01-14 13:05:00,
2013-01-14 08:30:00,57.6,54.7,30.15,SW,225,2.5,2.5,90,0.00,,,0.00,WUHU216HW,2013-01-14 13:30:00,
2013-01-14 08:35:00,57.6,54.7,30.15,SW,225,2.5,2.5,90,0.00,,,0.00,WUHU216HW,2013-01-14 13:35:00,
2013-01-14 09:30:00,63.4,60.8,30.15,SSW,203,0.9,0.9,91,0.00,,,0.00,WUHU216HW,2013-01-14 14:30:00,
2013-01-14 10:00:00,64.8,60.8,30.17,SSW,203,2.0,2.0,87,0.00,,,0.00,WUHU216HW,2013-01-14 15:00:00,
2013-01-14 10:30:00,66.8,62.5,30.16,SSW,203,2.0,2.0,86,0.00,,,0.00,WUHU216HW,2013-01-14 15:30:00,
2013-01-14 11:00:00,69.8,62.7,30.14,WSW,248,3.6,3.6,78,0.00,,,0.00,WUHU216HW,2013-01-14 16:00:00,
2013-01-14 11:30:00,71.3,62.9,30.13,WSW,248,3.6,3.6,75,0.00,,,0.00,WUHU216HW,2013-01-14 16:30:00,
2013-01-14 12:00:00,73.6,64.1,30.12,WSW,248,1.3,1.3,72,0.00,,,0.00,WUHU216HW,2013-01-14 17:00:00,
2013-01-14 12:30:00,75.1,62.9,30.10,SSW,203,6.0,6.0,66,0.00,,,0.00,WUHU216HW,2013-01-14 17:30:00,
2013-01-14 13:00:00,76.3,63.2,30.09,SSE,158,2.5,2.5,64,0.00,,,0.00,WUHU216HW,2013-01-14 18:00:00,
2013-01-14 13:30:00,77.2,62.7,30.09,WSW,248,2.0,2.0,61,0.00,,,0.00,WUHU216HW,2013-01-14 18:30:00,
2013-01-14 14:00:00,76.1,62.7,30.09,SSW,203,7.4,7.4,63,0.00,,,0.00,WUHU216HW,2013-01-14 19:00:00,
2013-01-14 14:30:00,77.8,63.3,30.08,SSW,203,4.0,4.0,61,0.00,,,0.00,WUHU216HW,2013-01-14 19:30:00,
2013-01-14 15:00:00,77.8,62.8,30.09,SSE,158,4.9,4.9,60,0.00,,,0.00,WUHU216HW,2013-01-14 20:00:00,
2013-01-14 15:30:00,76.5,62.9,30.09,SSW,203,1.1,1.1,63,0.00,,,0.00,WUHU216HW,2013-01-14 20:30:00,
2013-01-14 16:00:00,76.1,62.7,30.10,South,180,2.2,2.2,63,0.00,,,0.00,WUHU216HW,2013-01-14 21:00:00,
2013-01-14 16:30:00,75.6,63.5,30.11,South,180,0.0,0.0,66,0.00,,,0.00,WUHU216HW,2013-01-14 21:30:00,
2013-01-14 17:00:00,74.3,63.1,30.11,East,90,0.0,0.0,68,0.00,,,0.00,WUHU216HW,2013-01-14 22:00:00,
2013-01-14 17:30:00,70.9,62.2,30.11,South,180,0.0,0.0,74,0.00,,,0.00,WUHU216HW,2013-01-14 22:30:00,
2013-01-14 18:30:00,66.8,60.1,30.12,SSW,203,0.4,0.4,79,0.00,,,0.00,WUHU216HW,2013-01-14 23:30:00,
2013-01-14 18:35:00,66.8,60.1,30.12,SSW,203,0.4,0.4,79,0.00,,,0.00,WUHU216HW,2013-01-14 23:35:00,
2013-01-14 19:00:00,65.2,59.2,30.12,SSE,158,0.0,0.0,81,0.00,,,0.00,WUHU216HW,2013-01-15 00:00:00,
2013-01-14 19:05:00,65.2,59.2,30.12,SSE,158,0.0,0.0,81,0.00,,,0.00,WUHU216HW,2013-01-15 00:05:00,
2013-01-14 19:30:00,65.7,59.8,30.13,SSW,203,0.2,0.2,81,0.00,,,0.00,WUHU216HW,2013-01-15 00:30:00,
2013-01-14 19:35:00,65.7,59.8,30.13,SSW,203,0.2,0.2,81,0.00,,,0.00,WUHU216HW,2013-01-15 00:35:00,
2013-01-14 20:30:00,64.8,59.9,30.13,South,180,0.2,0.2,84,0.00,,,0.00,WUHU216HW,2013-01-15 01:30:00,
2013-01-14 20:35:00,64.8,59.9,30.13,South,180,0.2,0.2,84,0.00,,,0.00,WUHU216HW,2013-01-15 01:35:00,
2013-01-14 21:00:00,64.6,59.3,30.12,SSW,203,0.9,0.9,83,0.00,,,0.00,WUHU216HW,2013-01-15 02:00:00,
2013-01-14 21:05:00,64.6,59.3,30.12,SSW,203,0.9,0.9,83,0.00,,,0.00,WUHU216HW,2013-01-15 02:05:00,
2013-01-14 21:30:00,64.8,59.9,30.12,SSW,203,0.7,0.7,84,0.00,,,0.00,WUHU216HW,2013-01-15 02:30:00,
2013-01-14 21:35:00,64.8,59.9,30.12,SSW,203,0.7,0.7,84,0.00,,,0.00,WUHU216HW,2013-01-15 02:35:00,
2013-01-14 22:00:00,64.6,59.3,30.12,South,180,1.8,1.8,83,0.00,,,0.00,WUHU216HW,2013-01-15 03:00:00,
2013-01-14 22:05:00,64.6,59.3,30.12,South,180,1.8,1.8,83,0.00,,,0.00,WUHU216HW,2013-01-15 03:05:00,
2013-01-14 22:30:00,64.3,59.0,30.12,South,180,1.8,1.8,83,0.00,,,0.00,WUHU216HW,2013-01-15 03:30:00,
2013-01-14 22:35:00,64.3,59.0,30.12,South,180,1.8,1.8,83,0.00,,,0.00,WUHU216HW,2013-01-15 03:35:00,
2013-01-14 23:00:00,63.7,58.4,30.13,SW,225,0.7,0.7,83,0.00,,,0.00,WUHU216HW,2013-01-15 04:00:00,
2013-01-14 23:05:00,63.7,58.4,30.13,SW,225,0.7,0.7,83,0.00,,,0.00,WUHU216HW,2013-01-15 04:05:00,
2013-01-14 23:30:00,63.4,58.1,30.12,SSW,203,1.8,1.8,83,0.00,,,0.00,WUHU216HW,2013-01-15 04:30:00,